Terminal Aerodrome Forecast
Issued by NWS Cleveland, OH

Home | Current Version | Previous Version | Graphics & Text | Print | Product List | Glossary On
Versions: 1 2 3 4 5 6 7 8 9 10 11 12 13 14 15 16 17 18 19 20
001
FTUS41 KCLE 092022 AAB
TAFTOL
TAF AMD
KTOL 092022Z 0920/1018 29012KT P6SM OVC018
      TEMPO 0920/0924 4SM -SHSN OVC012
     FM100000 27012G18KT P6SM OVC015
     FM100800 28012KT 4SM -SN OVC015
     FM101400 29014KT P6SM OVC035=

USA.gov is the U.S. government's official web portal to all federal, state and local government web resources and services.